Time;durP1;ratioP1;P1;durP2;ratioP2;P2;SDS_P1;SDS_P2;PMS_P1;PMS_P2;Temp;Humidity;BMP_temperature;BMP_pressure;BME280_temperature;BME280_humidity;BME280_pressure;Samples;Min_cycle;Max_cycle;Signal;HPM_P1;HPM_P2
2023/07/20 00:01:04;;;;;;;6.90;4.82;;;;;;;27.04;46.73;97779.94;5112176;28;20207;-56
2023/07/20 00:03:30;;;;;;;9.55;4.88;;;;;;;27.12;46.91;97822.13;5112000;28;20652;-56
2023/07/20 00:05:55;;;;;;;10.32;5.20;;;;;;;27.42;46.57;97841.63;5112493;28;20624;-56
2023/07/20 00:08:20;;;;;;;6.95;4.85;;;;;;;27.39;46.64;97798.72;5114174;28;20194;-56
2023/07/20 00:10:46;;;;;;;8.60;4.60;;;;;;;27.48;46.56;97800.84;5116423;28;20258;-56
2023/07/20 00:13:12;;;;;;;5.68;5.07;;;;;;;27.44;46.25;97785.56;5116378;28;20274;-56
2023/07/20 00:15:37;;;;;;;7.85;4.68;;;;;;;27.34;46.63;97791.44;5116264;28;20625;-56
2023/07/20 00:18:06;;;;;;;8.10;6.40;;;;;;;27.23;46.96;97786.88;5116385;28;20171;-56
2023/07/20 00:20:31;;;;;;;7.75;5.07;;;;;;;27.25;47.36;97800.75;5116181;28;20203;-56
2023/07/20 00:22:57;;;;;;;6.75;4.60;;;;;;;27.51;46.22;97807.56;5116216;28;20179;-56
2023/07/20 00:25:23;;;;;;;8.13;5.20;;;;;;;27.43;46.18;97794.56;5116107;28;20179;-56
2023/07/20 00:27:49;;;;;;;6.03;4.50;;;;;;;27.54;46.09;97778.69;5116157;28;20220;-56
2023/07/20 00:30:15;;;;;;;11.13;5.35;;;;;;;27.86;46.89;97827.91;5116067;28;20187;-56
2023/07/20 00:32:41;;;;;;;9.45;5.10;;;;;;;27.69;47.66;97779.06;5115726;28;20175;-55
2023/07/20 00:35:07;;;;;;;8.68;5.75;;;;;;;27.78;48.34;97811.47;5115704;27;20171;-55
2023/07/20 00:37:32;;;;;;;8.98;5.90;;;;;;;27.58;49.19;97784.34;5115892;28;20174;-55
2023/07/20 00:39:57;;;;;;;8.13;5.05;;;;;;;27.44;49.78;97785.56;5115795;28;20175;-55
2023/07/20 00:42:23;;;;;;;9.77;5.25;;;;;;;27.66;49.75;97806.09;5115542;28;20534;-55
2023/07/20 00:44:48;;;;;;;9.23;5.03;;;;;;;27.46;49.73;97799.47;5115762;28;20213;-55
2023/07/20 00:47:14;;;;;;;7.78;4.75;;;;;;;27.30;50.07;97792.09;5115750;27;20285;-55
2023/07/20 00:49:39;;;;;;;9.90;4.90;;;;;;;27.11;51.51;97783.31;5115640;28;20540;-55
2023/07/20 00:52:07;;;;;;;10.23;5.78;;;;;;;27.04;52.27;97768.50;5115688;27;20555;-55
2023/07/20 00:54:33;;;;;;;11.05;5.85;;;;;;;26.88;52.93;97769.94;5115635;28;20633;-55
2023/07/20 00:57:01;;;;;;;7.45;5.30;;;;;;;26.64;53.22;97736.31;5115631;28;20637;-55
2023/07/20 00:59:27;;;;;;;8.68;5.22;;;;;;;26.55;53.57;97731.53;5115506;28;20185;-55
2023/07/20 01:01:52;;;;;;;8.93;5.10;;;;;;;26.67;53.41;97729.75;5115364;28;20203;-55
2023/07/20 01:04:18;;;;;;;6.63;4.72;;;;;;;26.70;52.36;97745.25;5115438;28;20183;-55
2023/07/20 01:07:05;;;;;;;7.50;5.13;;;;;;;26.72;51.85;97762.59;5115486;28;20234;-55
2023/07/20 01:09:36;;;;;;;6.40;4.60;;;;;;;26.43;51.89;97733.28;5115362;28;20661;-55
2023/07/20 01:12:09;;;;;;;9.15;5.30;;;;;;;26.56;51.93;97759.69;5115302;28;20197;-55
2023/07/20 01:14:36;;;;;;;6.45;4.75;;;;;;;26.09;52.79;97737.31;5114961;28;20179;-55
2023/07/20 01:17:02;;;;;;;8.70;5.07;;;;;;;26.10;52.61;97738.09;5115100;28;20174;-55
2023/07/20 01:19:27;;;;;;;7.22;4.75;;;;;;;25.91;53.33;97739.94;5114548;28;20611;-55
2023/07/20 01:22:09;;;;;;;6.45;5.05;;;;;;;25.97;54.29;97760.28;5115064;28;20286;-55
2023/07/20 01:25:12;;;;;;;8.02;5.15;;;;;;;25.95;54.14;97757.00;5115424;28;20186;-56
2023/07/20 01:28:11;;;;;;;6.10;5.18;;;;;;;25.78;54.26;97760.41;5114937;28;20173;-55
2023/07/20 01:30:45;;;;;;;8.15;5.07;;;;;;;25.22;55.33;97717.97;5114513;28;20632;-55
2023/07/20 01:33:15;;;;;;;13.95;4.95;;;;;;;24.99;56.00;97708.94;5114640;28;20269;-55
2023/07/20 01:35:43;;;;;;;5.10;4.60;;;;;;;24.80;56.71;97701.91;5114802;28;20175;-55
2023/07/20 01:38:11;;;;;;;6.85;4.57;;;;;;;24.76;57.39;97717.41;5114727;28;20224;-55
2023/07/20 01:40:37;;;;;;;5.00;4.50;;;;;;;24.80;57.77;97723.09;5114888;28;20213;-55
2023/07/20 01:43:03;;;;;;;6.60;4.70;;;;;;;24.60;58.27;97691.41;5114714;28;20266;-56
2023/07/20 01:45:28;;;;;;;6.25;4.68;;;;;;;24.60;58.62;97696.72;5114607;28;20257;-56
2023/07/20 01:47:54;;;;;;;5.55;5.05;;;;;;;24.66;58.71;97708.31;5114538;28;20171;-56
2023/07/20 01:50:19;;;;;;;7.03;5.15;;;;;;;24.40;59.20;97689.84;5114816;28;20184;-56
2023/07/20 01:52:45;;;;;;;5.90;5.40;;;;;;;24.40;59.71;97698.59;5114555;28;20171;-56
2023/07/20 01:55:10;;;;;;;5.95;4.93;;;;;;;24.48;59.93;97731.91;5114422;28;20175;-56
2023/07/20 01:57:35;;;;;;;5.22;4.72;;;;;;;24.44;59.88;97720.94;5114424;28;20171;-56
2023/07/20 02:00:01;;;;;;;6.90;5.35;;;;;;;24.38;60.47;97715.69;5114344;27;20186;-56
2023/07/20 02:02:28;;;;;;;8.75;5.10;;;;;;;24.32;60.79;97722.63;5114318;28;20175;-56
2023/07/20 02:04:53;;;;;;;6.97;4.63;;;;;;;24.30;60.61;97707.97;5114046;28;20179;-56
2023/07/20 02:07:19;;;;;;;5.35;4.85;;;;;;;24.21;60.76;97702.09;5114229;27;20171;-56
2023/07/20 02:09:44;;;;;;;5.88;4.93;;;;;;;24.29;61.05;97707.19;5114129;28;20171;-56
2023/07/20 02:12:10;;;;;;;5.10;4.57;;;;;;;24.18;61.18;97696.41;5113831;28;20664;-56
2023/07/20 02:14:35;;;;;;;6.35;5.20;;;;;;;24.04;61.61;97706.19;5114110;28;20637;-56
2023/07/20 02:17:01;;;;;;;5.25;4.75;;;;;;;24.18;61.76;97733.44;5114259;28;20353;-56
2023/07/20 02:19:27;;;;;;;6.05;5.10;;;;;;;23.94;62.33;97704.22;5113994;28;20258;-56
2023/07/20 02:21:52;;;;;;;7.60;5.15;;;;;;;24.13;62.38;97730.59;5113442;28;20206;-56
2023/07/20 02:24:18;;;;;;;7.10;5.03;;;;;;;24.02;62.67;97733.06;5114180;28;20232;-56
2023/07/20 02:26:43;;;;;;;6.22;4.95;;;;;;;24.00;62.97;97740.41;5113568;27;20665;-56
2023/07/20 02:29:11;;;;;;;5.10;4.60;;;;;;;24.04;62.83;97743.22;5113767;28;20175;-56
2023/07/20 02:31:37;;;;;;;6.35;5.07;;;;;;;24.08;63.11;97748.09;5112646;27;20662;-57
2023/07/20 02:34:03;;;;;;;6.32;4.82;;;;;;;24.13;63.16;97755.22;5113652;28;20199;-56
2023/07/20 02:36:28;;;;;;;9.30;4.90;;;;;;;24.02;62.50;97719.84;5113558;28;20260;-56
2023/07/20 02:38:54;;;;;;;5.68;4.75;;;;;;;24.17;62.42;97743.22;5113588;28;20163;-56
2023/07/20 02:41:20;;;;;;;6.13;4.80;;;;;;;24.20;62.41;97734.84;5113379;28;20214;-57
2023/07/20 02:43:45;;;;;;;9.50;5.22;;;;;;;24.25;61.77;97723.63;5113790;28;20592;-56
2023/07/20 02:46:11;;;;;;;7.40;5.13;;;;;;;24.17;61.79;97703.56;5113511;27;20179;-56
2023/07/20 02:48:36;;;;;;;8.05;5.68;;;;;;;24.44;61.86;97730.72;5113111;28;20641;-56
2023/07/20 02:51:01;;;;;;;6.20;4.72;;;;;;;24.60;60.97;97728.47;5113381;28;20197;-57
2023/07/20 02:53:27;;;;;;;7.50;5.30;;;;;;;24.41;60.68;97697.56;5113287;28;20171;-56
2023/07/20 02:55:53;;;;;;;5.60;4.85;;;;;;;24.60;60.22;97704.66;5113273;28;20171;-56
2023/07/20 02:58:18;;;;;;;6.13;4.55;;;;;;;24.52;60.44;97681.06;5113191;28;20175;-56
2023/07/20 03:00:44;;;;;;;7.40;5.47;;;;;;;24.61;60.50;97682.47;5113138;28;20319;-56
2023/07/20 03:03:09;;;;;;;5.28;4.85;;;;;;;24.56;59.74;97678.81;5113171;28;20214;-56
2023/07/20 03:05:37;;;;;;;5.18;4.65;;;;;;;24.70;59.51;97691.78;5113027;28;20187;-56
2023/07/20 03:08:06;;;;;;;7.15;5.20;;;;;;;24.75;59.34;97696.44;5113051;28;20168;-56
2023/07/20 03:10:31;;;;;;;8.90;4.68;;;;;;;24.85;59.44;97721.41;5112943;28;20174;-56
2023/07/20 03:12:57;;;;;;;7.63;5.10;;;;;;;24.79;59.82;97722.25;5112985;28;20181;-56
2023/07/20 03:15:22;;;;;;;6.47;5.10;;;;;;;24.67;60.61;97715.22;5112608;28;20202;-56
2023/07/20 03:17:48;;;;;;;6.47;5.63;;;;;;;24.56;61.14;97692.03;5112899;28;20245;-56
2023/07/20 03:20:13;;;;;;;6.00;4.35;;;;;;;24.45;60.88;97672.31;5112664;28;20220;-56
2023/07/20 03:22:38;;;;;;;6.88;5.07;;;;;;;24.72;60.20;97708.25;5112790;28;20174;-56
2023/07/20 03:25:04;;;;;;;6.63;5.00;;;;;;;24.69;60.10;97706.06;5112789;28;20175;-56
2023/07/20 03:27:30;;;;;;;7.90;4.97;;;;;;;24.53;60.66;97669.44;5112705;28;20167;-56
2023/07/20 03:29:55;;;;;;;6.22;5.13;;;;;;;24.76;60.67;97709.47;5112710;28;20167;-56
2023/07/20 03:32:20;;;;;;;6.90;5.40;;;;;;;24.76;60.41;97690.94;5112689;28;20178;-55
2023/07/20 03:34:46;;;;;;;9.10;5.57;;;;;;;24.89;60.85;97706.75;5112903;28;20548;-55
2023/07/20 03:37:13;;;;;;;9.25;5.75;;;;;;;24.75;60.49;97668.16;5112607;28;20254;-55
2023/07/20 03:39:38;;;;;;;6.53;4.93;;;;;;;24.88;61.20;97694.53;5112562;28;20269;-55
2023/07/20 03:42:04;;;;;;;6.13;5.53;;;;;;;24.74;61.42;97676.31;5111975;28;20640;-55
2023/07/20 03:44:30;;;;;;;7.13;5.00;;;;;;;24.80;61.08;97671.00;5112136;28;20657;-55
2023/07/20 03:46:55;;;;;;;6.93;5.15;;;;;;;25.08;60.42;97711.13;5112345;28;20253;-55
2023/07/20 03:49:21;;;;;;;5.68;5.10;;;;;;;24.99;59.75;97670.06;5112718;28;20175;-55
2023/07/20 03:51:46;;;;;;;6.80;5.18;;;;;;;25.06;59.59;97686.69;5112380;28;20309;-56
2023/07/20 03:54:12;;;;;;;10.23;5.05;;;;;;;25.18;58.92;97700.06;5112151;28;20648;-56
2023/07/20 03:56:37;;;;;;;7.13;4.82;;;;;;;25.17;58.83;97696.59;5112263;28;20178;-56
2023/07/20 03:59:03;;;;;;;8.77;5.57;;;;;;;25.10;58.68;97679.97;5112631;28;20736;-56
2023/07/20 04:01:28;;;;;;;7.25;5.18;;;;;;;25.11;59.04;97676.28;5112186;28;20198;-56
2023/07/20 04:03:54;;;;;;;7.95;5.03;;;;;;;25.23;58.75;97677.22;5112308;28;20175;-56
2023/07/20 04:06:19;;;;;;;5.90;5.05;;;;;;;25.33;58.83;97682.06;5112241;28;20302;-56
2023/07/20 04:08:47;;;;;;;7.13;5.28;;;;;;;25.28;58.82;97669.47;5112176;28;20178;-56
2023/07/20 04:11:12;;;;;;;8.55;5.80;;;;;;;25.33;59.12;97672.28;5112140;28;20190;-56
2023/07/20 04:13:38;;;;;;;9.73;5.63;;;;;;;25.32;59.23;97669.84;5111855;28;20171;-56
2023/07/20 04:16:03;;;;;;;5.13;4.63;;;;;;;25.47;59.18;97689.69;5112186;28;20206;-56
2023/07/20 04:18:29;;;;;;;6.05;4.95;;;;;;;25.59;59.17;97701.22;5112161;28;20192;-56
2023/07/20 04:20:54;;;;;;;9.00;4.65;;;;;;;25.59;58.08;97693.25;5112074;28;20199;-56
2023/07/20 04:23:20;;;;;;;9.27;5.60;;;;;;;25.66;57.87;97703.81;5112145;28;20182;-56
2023/07/20 04:25:45;;;;;;;7.15;5.05;;;;;;;25.71;57.80;97710.09;5112042;28;20224;-56
2023/07/20 04:28:11;;;;;;;6.03;5.00;;;;;;;25.83;57.54;97705.69;5112068;28;20171;-56
2023/07/20 04:30:37;;;;;;;7.40;5.28;;;;;;;25.79;57.98;97703.69;5111942;28;20218;-56
2023/07/20 04:33:05;;;;;;;7.03;5.22;;;;;;;25.58;59.49;97670.44;5112023;28;20175;-56
2023/07/20 04:35:50;;;;;;;9.57;5.18;;;;;;;25.68;60.02;97713.19;5111970;28;20254;-56
2023/07/20 04:38:17;;;;;;;5.47;4.93;;;;;;;25.47;59.32;97673.81;5112020;28;20224;-57
2023/07/20 04:40:46;;;;;;;5.93;5.30;;;;;;;25.65;59.03;97705.66;5111897;28;20725;-56
2023/07/20 04:43:13;;;;;;;7.13;4.82;;;;;;;25.67;58.47;97697.50;5111891;28;20254;-56
2023/07/20 04:45:38;;;;;;;8.73;5.38;;;;;;;25.69;58.46;97698.91;5111922;28;20254;-56
2023/07/20 04:48:10;;;;;;;7.05;5.30;;;;;;;25.69;57.94;97683.00;5111907;28;20262;-56
2023/07/20 04:50:35;;;;;;;5.65;5.15;;;;;;;25.92;57.82;97696.47;5111883;28;20218;-56
2023/07/20 04:53:01;;;;;;;5.72;5.13;;;;;;;26.11;57.95;97705.25;5111871;28;20172;-56
2023/07/20 04:55:27;;;;;;;6.38;5.38;;;;;;;26.10;57.22;97679.75;5115256;28;20269;-57
2023/07/20 04:57:53;;;;;;;7.03;5.20;;;;;;;26.21;56.80;97679.03;5115558;28;20254;-56
2023/07/20 05:00:19;;;;;;;7.60;5.25;;;;;;;26.41;57.32;97717.56;5115214;28;20199;-56
2023/07/20 05:02:47;;;;;;;7.35;4.85;;;;;;;26.28;57.30;97677.09;5115786;28;20182;-56
2023/07/20 05:05:13;;;;;;;6.72;5.97;;;;;;;26.40;56.41;97689.44;5115153;28;20219;-55
2023/07/20 05:07:38;;;;;;;6.13;5.15;;;;;;;26.64;56.25;97703.69;5115458;28;20178;-55
2023/07/20 05:10:04;;;;;;;6.47;4.97;;;;;;;26.77;55.35;97701.66;5115327;28;20640;-56
2023/07/20 05:12:29;;;;;;;6.90;5.47;;;;;;;26.75;55.90;97706.38;5115309;28;20196;-56
2023/07/20 05:14:55;;;;;;;5.45;5.03;;;;;;;26.79;55.67;97715.53;5115299;28;20182;-55
2023/07/20 05:17:20;;;;;;;9.18;5.75;;;;;;;26.95;55.18;97722.84;5115207;28;20205;-56
2023/07/20 05:19:46;;;;;;;6.63;5.18;;;;;;;26.92;54.32;97707.38;5115132;28;20179;-56
2023/07/20 05:22:13;;;;;;;7.72;5.53;;;;;;;26.87;54.17;97696.63;5115035;28;20690;-56
2023/07/20 05:24:39;;;;;;;6.15;5.40;;;;;;;27.13;54.13;97725.50;5115093;28;20194;-56
2023/07/20 05:27:04;;;;;;;8.75;5.80;;;;;;;26.96;54.26;97692.63;5115013;28;20643;-56
2023/07/20 05:29:33;;;;;;;7.97;5.53;;;;;;;26.87;54.52;97683.34;5115273;28;20249;-56
2023/07/20 05:31:58;;;;;;;6.13;5.15;;;;;;;26.92;54.58;97699.41;5114872;28;20284;-56
2023/07/20 05:34:24;;;;;;;8.40;5.45;;;;;;;26.96;54.79;97686.50;5114819;28;20258;-56
2023/07/20 05:36:49;;;;;;;7.55;5.47;;;;;;;26.98;54.45;97690.53;5114958;28;20175;-56
2023/07/20 05:39:19;;;;;;;6.05;5.47;;;;;;;27.23;54.43;97712.47;5112149;28;20183;-56
2023/07/20 05:41:44;;;;;;;8.77;5.30;;;;;;;27.33;53.85;97704.78;5112201;28;20215;-56
2023/07/20 05:44:09;;;;;;;5.95;5.35;;;;;;;27.23;54.27;97707.16;5112222;28;20197;-56
2023/07/20 05:46:35;;;;;;;6.32;5.72;;;;;;;27.40;53.73;97710.78;5112255;28;20624;-57
2023/07/20 05:49:01;;;;;;;10.30;5.68;;;;;;;27.35;54.02;97702.69;5112065;28;20680;-57
2023/07/20 05:51:27;;;;;;;5.90;5.20;;;;;;;27.49;54.06;97701.47;5112073;28;20179;-57
2023/07/20 05:53:52;;;;;;;9.38;5.13;;;;;;;27.63;53.61;97705.53;5112009;28;20653;-57
2023/07/20 05:56:18;;;;;;;7.63;5.95;;;;;;;27.59;53.47;97696.38;5112057;28;20171;-57
2023/07/20 05:58:43;;;;;;;8.98;6.00;;;;;;;27.70;53.33;97692.94;5111915;28;20281;-56
2023/07/20 06:01:09;;;;;;;8.90;5.82;;;;;;;27.97;52.93;97711.94;5111759;28;20267;-56
2023/07/20 06:03:34;;;;;;;7.35;5.13;;;;;;;27.96;52.27;97695.19;5111871;28;20183;-56
2023/07/20 06:06:01;;;;;;;5.90;5.28;;;;;;;28.04;52.36;97697.47;5111561;28;20290;-56
2023/07/20 06:08:30;;;;;;;10.25;5.97;;;;;;;28.12;52.61;97693.66;5111647;28;20672;-56
2023/07/20 06:10:56;;;;;;;7.10;6.25;;;;;;;28.35;51.83;97705.09;5113420;28;20873;-56
2023/07/20 06:13:21;;;;;;;7.22;5.72;;;;;;;28.48;51.45;97694.22;5114138;28;20179;-56
2023/07/20 06:15:47;;;;;;;7.85;5.82;;;;;;;28.41;51.68;97674.09;5114050;28;20258;-56
2023/07/20 06:18:13;;;;;;;5.35;4.85;;;;;;;28.34;51.45;97674.19;5113934;28;20210;-56
2023/07/20 06:20:38;;;;;;;5.80;5.30;;;;;;;28.43;51.59;97661.34;5113877;28;20199;-56
2023/07/20 06:23:04;;;;;;;7.93;5.20;;;;;;;28.54;51.54;97666.66;5113951;28;20577;-56
2023/07/20 06:25:29;;;;;;;7.60;5.80;;;;;;;28.70;51.25;97665.91;5113891;28;20167;-56
2023/07/20 06:27:55;;;;;;;6.72;5.88;;;;;;;28.95;50.69;97685.06;5113881;28;20564;-55
2023/07/20 06:30:21;;;;;;;6.38;5.72;;;;;;;29.04;50.70;97682.81;5113866;28;20190;-55
2023/07/20 06:32:48;;;;;;;6.72;5.93;;;;;;;29.08;50.34;97682.09;5113757;28;20551;-56
2023/07/20 06:35:14;;;;;;;8.38;5.60;;;;;;;29.13;50.31;97670.72;5113747;28;20176;-55
2023/07/20 06:37:39;;;;;;;9.63;5.88;;;;;;;29.21;50.27;97673.00;5113705;28;20167;-56
2023/07/20 06:40:05;;;;;;;9.77;5.82;;;;;;;29.14;50.33;97640.38;5113569;28;20194;-56
2023/07/20 06:42:31;;;;;;;9.02;5.75;;;;;;;29.27;50.18;97646.19;5113611;27;20221;-56
2023/07/20 06:44:57;;;;;;;5.60;5.05;;;;;;;29.38;49.70;97647.16;5113567;28;20198;-56
2023/07/20 06:47:22;;;;;;;7.40;5.95;;;;;;;29.52;49.31;97673.28;5113459;28;20167;-56
2023/07/20 06:49:48;;;;;;;7.10;5.47;;;;;;;29.55;49.39;97662.13;5113446;28;20645;-56
2023/07/20 06:52:13;;;;;;;7.72;5.75;;;;;;;29.54;48.30;97663.19;5113600;28;20704;-56
2023/07/20 06:54:39;;;;;;;9.30;5.90;;;;;;;29.73;48.77;97675.22;5113234;28;20175;-56
2023/07/20 06:57:05;;;;;;;6.63;5.95;;;;;;;29.85;48.63;97686.59;5113182;28;20273;-56
2023/07/20 06:59:30;;;;;;;6.40;5.57;;;;;;;29.68;47.39;97663.69;5113448;27;20249;-56
2023/07/20 07:01:56;;;;;;;10.65;6.10;;;;;;;29.52;48.25;97665.28;5113119;28;20234;-56
2023/07/20 07:04:21;;;;;;;7.30;5.85;;;;;;;29.78;47.46;97680.63;5112986;28;20224;-56
2023/07/20 07:06:47;;;;;;;8.30;5.90;;;;;;;29.92;47.50;97667.78;5113192;28;20187;-56
2023/07/20 07:09:13;;;;;;;37.78;33.03;;;;;;;30.04;46.96;97669.28;5112872;28;20190;-56
2023/07/20 07:11:40;;;;;;;11.38;7.28;;;;;;;30.13;47.06;97656.38;5112460;28;20202;-56
2023/07/20 07:14:05;;;;;;;14.77;6.28;;;;;;;30.47;46.33;97687.22;5112947;28;20183;-56
2023/07/20 07:16:31;;;;;;;8.05;6.15;;;;;;;30.57;46.66;97690.84;5112371;28;20179;-56
2023/07/20 07:18:56;;;;;;;8.60;5.90;;;;;;;30.49;46.35;97661.88;5112843;28;20193;-56
2023/07/20 07:21:21;;;;;;;15.68;7.35;;;;;;;30.62;46.33;97666.06;5112645;28;20197;-56
2023/07/20 07:23:47;;;;;;;14.48;7.05;;;;;;;30.73;46.48;97663.25;5112766;28;20199;-56
2023/07/20 07:26:13;;;;;;;14.52;6.68;;;;;;;30.92;46.02;97674.44;5112703;28;20167;-56
2023/07/20 07:28:38;;;;;;;15.05;6.63;;;;;;;31.00;45.78;97677.47;5112357;28;20179;-56
2023/07/20 07:31:07;;;;;;;13.65;6.65;;;;;;;30.74;45.72;97642.72;5112637;28;20635;-56
2023/07/20 07:33:33;;;;;;;13.57;6.43;;;;;;;30.81;46.24;97665.50;5112339;28;20262;-56
2023/07/20 07:35:58;;;;;;;14.45;6.88;;;;;;;30.68;45.83;97660.56;5112577;28;20344;-56
2023/07/20 07:38:24;;;;;;;15.23;6.85;;;;;;;30.79;46.18;97667.59;5112536;28;20340;-56
2023/07/20 07:40:49;;;;;;;9.63;6.07;;;;;;;30.84;46.16;97659.66;5109811;28;20288;-56
2023/07/20 07:43:15;;;;;;;15.48;6.60;;;;;;;30.97;45.88;97666.47;5110071;28;20205;-56
2023/07/20 07:45:40;;;;;;;14.63;6.30;;;;;;;31.02;44.92;97671.88;5110022;28;20750;-56
2023/07/20 07:48:07;;;;;;;14.82;6.57;;;;;;;30.93;45.92;97652.00;5109986;28;20179;-56
2023/07/20 07:50:33;;;;;;;14.60;7.15;;;;;;;31.06;45.62;97662.28;5110019;28;20245;-56
2023/07/20 07:52:59;;;;;;;14.68;6.43;;;;;;;31.16;46.04;97659.69;5110026;28;20209;-56
2023/07/20 07:55:26;;;;;;;15.85;6.35;;;;;;;31.14;45.58;97653.81;5109814;28;20226;-56
2023/07/20 07:57:52;;;;;;;19.13;6.50;;;;;;;31.15;45.73;97656.25;5109866;28;20210;-56
2023/07/20 08:00:19;;;;;;;16.92;6.68;;;;;;;31.25;46.21;97655.56;5109689;28;20713;-56
2023/07/20 08:02:46;;;;;;;11.35;6.85;;;;;;;31.39;44.92;97652.19;5109724;28;20289;-56
2023/07/20 08:05:12;;;;;;;26.60;7.65;;;;;;;31.36;44.99;97644.66;5109391;28;20358;-56
2023/07/20 08:07:38;;;;;;;12.85;6.35;;;;;;;31.69;44.33;97689.88;5109695;28;20183;-56
2023/07/20 08:10:04;;;;;;;14.18;6.00;;;;;;;31.77;44.00;97681.41;5109746;28;20182;-56
2023/07/20 08:12:29;;;;;;;13.05;6.22;;;;;;;31.81;44.29;97682.50;5111263;28;20190;-56
2023/07/20 08:14:54;;;;;;;12.25;5.97;;;;;;;31.79;43.54;97684.66;5111850;28;20183;-56
2023/07/20 08:17:20;;;;;;;12.95;6.65;;;;;;;31.78;44.03;97674.19;5112148;28;20266;-56
2023/07/20 08:19:46;;;;;;;13.05;6.15;;;;;;;31.70;43.90;97658.59;5112194;28;20186;-56
2023/07/20 08:22:12;;;;;;;19.75;6.55;;;;;;;31.78;43.39;97658.13;5112007;28;20252;-56
2023/07/20 08:24:41;;;;;;;10.35;5.90;;;;;;;31.99;44.01;97684.78;5112076;28;20187;-56
2023/07/20 08:27:06;;;;;;;17.77;6.43;;;;;;;31.96;43.71;97679.94;5112075;28;20641;-56
2023/07/20 08:29:32;;;;;;;12.25;6.88;;;;;;;32.15;43.30;97689.16;5114463;28;20175;-56
2023/07/20 08:31:57;;;;;;;10.52;6.28;;;;;;;32.22;43.58;97691.59;5116016;28;20190;-56
2023/07/20 08:34:23;;;;;;;11.18;6.80;;;;;;;32.19;42.85;97676.88;5116025;28;20285;-56
2023/07/20 08:36:48;;;;;;;12.82;6.32;;;;;;;32.14;42.74;97671.50;5115932;28;20172;-56
2023/07/20 08:39:14;;;;;;;10.45;6.15;;;;;;;32.28;42.49;97686.03;5115618;28;20174;-56
2023/07/20 08:41:42;;;;;;;12.88;6.07;;;;;;;32.24;42.26;97666.19;5115778;28;20549;-56
2023/07/20 08:44:08;;;;;;;16.08;6.30;;;;;;;32.47;42.86;97695.25;5115782;28;20616;-56
2023/07/20 08:46:37;;;;;;;15.98;6.32;;;;;;;32.35;42.60;97683.16;5115738;28;20560;-56
2023/07/20 08:49:02;;;;;;;14.38;5.60;;;;;;;32.38;41.96;97696.00;5115764;28;20233;-56
2023/07/20 08:51:30;;;;;;;12.23;5.93;;;;;;;32.41;42.57;97693.59;5115703;28;20203;-56
2023/07/20 08:53:55;;;;;;;9.27;5.68;;;;;;;32.34;41.67;97679.66;5115693;28;20255;-56
2023/07/20 08:56:23;;;;;;;18.08;6.30;;;;;;;32.49;42.57;97689.63;5115313;28;20598;-56
2023/07/20 08:58:49;;;;;;;14.68;6.20;;;;;;;32.66;42.52;97695.59;5115876;28;20175;-56
2023/07/20 09:01:17;;;;;;;13.05;6.15;;;;;;;32.67;42.15;97676.59;5115454;28;20199;-56
2023/07/20 09:03:45;;;;;;;11.90;5.97;;;;;;;32.77;41.52;97692.72;5113178;28;20187;-56
2023/07/20 09:06:10;;;;;;;14.75;6.07;;;;;;;32.68;41.27;97680.88;5115370;28;20187;-57
2023/07/20 09:08:40;;;;;;;11.75;5.85;;;;;;;32.57;42.23;97654.28;5115371;28;20175;-57
2023/07/20 09:11:06;;;;;;;8.85;5.90;;;;;;;32.76;41.12;97660.84;5115122;28;20593;-56
2023/07/20 09:13:34;;;;;;;6.70;5.57;;;;;;;32.89;40.78;97669.19;5115358;27;20188;-57
2023/07/20 09:16:00;;;;;;;13.07;5.85;;;;;;;32.98;40.44;97672.94;5115297;28;20179;-57
2023/07/20 09:18:31;;;;;;;11.63;5.53;;;;;;;32.98;40.51;97662.22;5114933;28;20175;-56
2023/07/20 09:21:06;;;;;;;12.35;5.50;;;;;;;33.07;40.97;97666.00;5115085;28;20202;-56
2023/07/20 09:23:39;;;;;;;15.80;5.97;;;;;;;33.01;41.23;97631.41;5115103;28;20174;-56
2023/07/20 09:26:12;;;;;;;13.05;5.70;;;;;;;33.24;40.83;97652.34;5115164;28;20262;-57
2023/07/20 09:28:51;;;;;;;11.70;5.95;;;;;;;32.85;40.57;97614.47;5115034;28;20251;-57
2023/07/20 09:31:18;;;;;;;13.85;5.65;;;;;;;32.87;41.46;97623.06;5115066;28;20171;-57
2023/07/20 09:33:45;;;;;;;8.00;5.95;;;;;;;33.20;40.82;97651.25;5114912;28;20186;-57
2023/07/20 09:36:13;;;;;;;10.40;5.78;;;;;;;33.19;40.92;97645.09;5114825;28;20646;-57
2023/07/20 09:38:41;;;;;;;7.45;5.78;;;;;;;33.31;40.41;97651.03;5114319;28;20175;-57
2023/07/20 09:41:06;;;;;;;9.63;5.78;;;;;;;33.34;40.94;97645.13;5113440;28;20211;-57
2023/07/20 09:43:34;;;;;;;10.98;5.90;;;;;;;33.40;40.09;97641.38;5113944;28;20171;-57
2023/07/20 09:45:59;;;;;;;7.45;5.60;;;;;;;33.43;40.19;97629.28;5114357;28;20171;-57
2023/07/20 09:48:26;;;;;;;13.52;5.93;;;;;;;33.28;40.48;97629.31;5113980;28;20661;-57
2023/07/20 09:50:53;;;;;;;15.75;5.75;;;;;;;33.06;40.31;97594.66;5114159;28;20204;-57
2023/07/20 09:53:19;;;;;;;9.88;5.70;;;;;;;33.33;40.23;97622.06;5114239;28;20668;-57
2023/07/20 09:55:46;;;;;;;13.93;6.13;;;;;;;33.40;41.11;97603.81;5114163;28;20178;-56
2023/07/20 09:58:12;;;;;;;12.20;6.03;;;;;;;33.42;39.70;97587.44;5114055;28;20186;-56
2023/07/20 10:00:39;;;;;;;6.95;5.47;;;;;;;33.66;39.89;97597.34;5113800;28;20207;-56
2023/07/20 10:03:05;;;;;;;9.68;5.93;;;;;;;33.57;38.45;97596.28;5113999;28;20171;-56
2023/07/20 10:05:36;;;;;;;12.02;5.57;;;;;;;33.63;39.40;97583.69;5113517;28;20239;-56
2023/07/20 10:08:04;;;;;;;10.73;5.60;;;;;;;33.83;38.29;97579.09;5113729;28;20183;-56
2023/07/20 10:10:32;;;;;;;11.38;5.70;;;;;;;34.01;38.97;97581.19;5113238;27;20183;-56
2023/07/20 10:13:01;;;;;;;8.38;5.82;;;;;;;34.32;38.29;97598.81;5113691;28;20207;-56
2023/07/20 10:15:46;;;;;;;14.68;6.35;;;;;;;34.50;37.16;97600.09;5113530;28;20254;-56
2023/07/20 10:18:31;;;;;;;10.25;5.88;;;;;;;34.62;36.72;97595.19;5113266;28;20175;-56
2023/07/20 10:20:59;;;;;;;11.32;6.05;;;;;;;34.52;36.69;97561.09;5113393;28;20203;-56
2023/07/20 10:23:26;;;;;;;8.35;5.35;;;;;;;34.68;36.25;97565.28;5113463;28;20185;-56
2023/07/20 10:25:52;;;;;;;12.80;6.50;;;;;;;34.95;36.76;97581.81;5113441;28;20171;-56
2023/07/20 10:28:18;;;;;;;11.77;5.97;;;;;;;34.68;36.33;97554.53;5113492;28;20182;-56
2023/07/20 10:30:44;;;;;;;6.25;5.65;;;;;;;34.71;36.43;97547.78;5113306;28;20170;-56
2023/07/20 10:33:09;;;;;;;8.88;6.00;;;;;;;34.77;37.10;97536.78;5113323;28;20179;-56
2023/07/20 10:35:57;;;;;;;8.98;5.78;;;;;;;35.18;35.93;97567.66;5113530;28;20266;-56
2023/07/20 10:38:42;;;;;;;11.00;5.57;;;;;;;35.19;35.55;97538.88;5113149;28;20672;-56
2023/07/20 10:41:33;;;;;;;9.02;5.80;;;;;;;35.41;35.35;97545.41;5113030;28;20226;-56
2023/07/20 10:44:05;;;;;;;6.43;5.07;;;;;;;35.56;34.84;97561.38;5113166;28;20231;-56
2023/07/20 10:46:48;;;;;;;10.48;5.32;;;;;;;35.46;34.47;97533.78;5113164;28;20206;-56
2023/07/20 10:49:15;;;;;;;8.15;5.95;;;;;;;35.80;34.87;97561.44;5113061;28;20175;-56
2023/07/20 10:51:46;;;;;;;10.65;5.30;;;;;;;36.05;33.92;97572.75;5112054;28;20239;-56
2023/07/20 10:54:17;;;;;;;12.13;5.50;;;;;;;36.31;33.24;97568.66;5112731;28;20200;-56
2023/07/20 10:56:44;;;;;;;10.57;6.07;;;;;;;36.44;33.46;97550.97;5112624;28;20175;-56
2023/07/20 10:59:25;;;;;;;6.57;5.30;;;;;;;36.75;33.13;97566.47;5112452;28;20614;-56
2023/07/20 11:01:59;;;;;;;11.90;5.63;;;;;;;36.84;32.45;97543.13;5112690;28;20198;-57
2023/07/20 11:04:48;;;;;;;13.00;5.57;;;;;;;37.04;32.38;97545.50;5112468;28;20231;-57
2023/07/20 11:07:17;;;;;;;13.10;5.72;;;;;;;37.16;30.91;97545.88;5112545;28;20179;-56
2023/07/20 11:09:43;;;;;;;9.10;4.82;;;;;;;37.43;30.83;97558.66;5112361;28;20243;-57
2023/07/20 11:12:27;;;;;;;10.38;5.20;;;;;;;37.53;31.05;97537.69;5112373;28;20266;-56
2023/07/20 11:14:57;;;;;;;8.18;5.03;;;;;;;37.62;30.18;97519.72;5112560;28;20248;-56
2023/07/20 11:17:30;;;;;;;13.55;5.15;;;;;;;37.39;30.20;97515.25;5112467;28;20332;-56
2023/07/20 11:19:57;;;;;;;10.05;5.10;;;;;;;37.64;30.47;97543.72;5112282;28;20607;-56
2023/07/20 11:22:22;;;;;;;9.43;5.15;;;;;;;37.47;30.39;97511.84;5112100;28;20339;-57
2023/07/20 11:24:51;;;;;;;9.85;5.72;;;;;;;37.78;31.05;97550.72;5112352;28;20258;-56
2023/07/20 11:27:19;;;;;;;7.57;5.00;;;;;;;37.81;30.80;97525.03;5111973;28;20664;-56
2023/07/20 11:29:45;;;;;;;9.23;5.95;;;;;;;37.88;30.19;97507.28;5112237;28;20211;-56
2023/07/20 11:32:10;;;;;;;9.88;5.85;;;;;;;37.98;30.12;97533.31;5112229;28;20179;-56